Time;durP1;ratioP1;P1;durP2;ratioP2;P2;SDS_P1;SDS_P2;PMS_P1;PMS_P2;Temp;Humidity;BMP_temperature;BMP_pressure;BME280_temperature;BME280_humidity;BME280_pressure;Samples;Min_cycle;Max_cycle;Signal;HPM_P1;HPM_P2
2023/09/18 00:02:00;;;;;;;9.23;8.20;;;21.10;99.90;;;;;;5035602;28;20454;-70
2023/09/18 00:04:29;;;;;;;9.37;8.43;;;21.00;99.90;;;;;;5035646;28;20428;-70
2023/09/18 00:06:56;;;;;;;9.23;8.27;;;21.00;99.90;;;;;;5035898;28;20456;-69
2023/09/18 00:09:23;;;;;;;11.87;9.00;;;21.00;99.90;;;;;;5035943;28;20558;-69
2023/09/18 00:11:50;;;;;;;11.00;8.63;;;21.00;99.90;;;;;;5035683;28;20550;-69
2023/09/18 00:14:17;;;;;;;11.87;9.00;;;20.90;99.90;;;;;;5036030;28;20968;-70
2023/09/18 00:16:45;;;;;;;9.43;8.30;;;20.90;99.90;;;;;;5037572;28;20704;-70
2023/09/18 00:19:12;;;;;;;8.90;7.90;;;20.90;99.90;;;;;;5036095;28;20452;-70
2023/09/18 00:21:40;;;;;;;9.73;8.77;;;20.90;99.90;;;;;;5035256;28;20884;-71
2023/09/18 00:24:08;;;;;;;9.07;8.17;;;20.90;99.90;;;;;;5035385;28;20534;-70
2023/09/18 00:26:35;;;;;;;13.03;9.30;;;20.90;99.90;;;;;;5035674;28;20539;-69
2023/09/18 00:29:02;;;;;;;9.40;8.50;;;20.90;99.90;;;;;;5035591;28;20503;-70
2023/09/18 00:31:29;;;;;;;9.60;8.70;;;20.90;99.90;;;;;;5051842;28;20950;-69
2023/09/18 00:33:56;;;;;;;8.27;7.43;;;20.80;99.90;;;;;;5055592;28;20511;-69
2023/09/18 00:36:23;;;;;;;9.50;8.60;;;20.80;99.90;;;;;;5054749;28;20518;-70
2023/09/18 00:38:54;;;;;;;10.33;8.53;;;20.80;99.90;;;;;;5055086;28;20481;-70
2023/09/18 00:41:21;;;;;;;8.13;7.33;;;20.70;99.90;;;;;;5055197;28;20504;-70
2023/09/18 00:43:48;;;;;;;9.90;8.90;;;20.70;99.90;;;;;;5054771;28;20986;-71
2023/09/18 00:46:15;;;;;;;9.73;8.83;;;20.70;99.90;;;;;;5046528;28;20507;-69
2023/09/18 00:48:42;;;;;;;10.60;8.50;;;20.70;99.90;;;;;;5036283;28;20424;-70
2023/09/18 00:51:10;;;;;;;9.83;8.80;;;20.70;99.90;;;;;;5039554;28;20888;-70
2023/09/18 00:53:39;;;;;;;8.80;7.90;;;20.70;99.90;;;;;;5035406;28;20538;-70
2023/09/18 00:56:07;;;;;;;10.93;8.23;;;21.00;99.90;;;;;;5037655;28;20448;-70
2023/09/18 01:05:27;;;;;;;8.97;8.03;;;20.60;99.90;;;;;;5055443;28;20418;-69
2023/09/18 01:17:47;;;;;;;11.93;7.97;;;20.40;99.90;;;;;;5014321;28;20421;-69
2023/09/18 01:20:29;;;;;;;8.20;7.30;;;20.40;99.90;;;;;;5014525;28;20445;-69
2023/09/18 01:22:57;;;;;;;9.80;7.33;;;20.30;99.90;;;;;;5013359;28;20441;-70
2023/09/18 01:25:24;;;;;;;11.63;7.33;;;20.30;99.90;;;;;;5013384;28;20544;-70
2023/09/18 01:28:06;;;;;;;8.70;7.80;;;20.30;99.90;;;;;;5013071;28;20519;-70
2023/09/18 01:33:56;;;;;;;7.43;6.77;;;20.30;99.90;;;;;;5054942;28;20503;-71
2023/09/18 01:36:27;;;;;;;10.27;8.00;;;20.30;99.90;;;;;;5054577;28;20463;-71
2023/09/18 01:38:57;;;;;;;10.77;8.40;;;20.30;99.90;;;;;;5054750;28;20451;-71
2023/09/18 01:41:24;;;;;;;11.77;7.10;;;20.30;99.90;;;;;;5054261;28;20542;-70
2023/09/18 01:43:51;;;;;;;7.77;6.87;;;20.30;99.90;;;;;;5054035;28;20546;-70
2023/09/18 01:46:19;;;;;;;7.70;7.00;;;20.20;99.90;;;;;;5058688;28;20546;-70
2023/09/18 01:48:48;;;;;;;10.63;6.83;;;20.20;99.90;;;;;;5054802;28;20434;-71
2023/09/18 01:51:17;;;;;;;8.53;7.70;;;20.30;99.90;;;;;;5055629;28;20554;-70
2023/09/18 01:53:44;;;;;;;7.83;7.13;;;20.30;99.90;;;;;;5038047;28;20505;-70
2023/09/18 01:56:13;;;;;;;7.30;6.43;;;20.20;99.90;;;;;;5054167;28;20467;-70
2023/09/18 01:58:40;;;;;;;7.97;7.27;;;20.20;99.90;;;;;;5053610;28;20455;-70
2023/09/18 02:01:10;;;;;;;8.17;7.43;;;20.20;99.90;;;;;;5053126;28;20866;-69
2023/09/18 02:03:41;;;;;;;9.17;6.27;;;20.20;99.90;;;;;;5053286;28;20471;-70
2023/09/18 02:06:08;;;;;;;6.83;6.10;;;20.10;99.90;;;;;;5053785;28;20424;-70
2023/09/18 02:08:35;;;;;;;8.10;7.30;;;20.10;99.90;;;;;;5040615;28;21009;-70
2023/09/18 02:11:04;;;;;;;8.53;7.67;;;20.10;99.90;;;;;;5033024;28;20504;-70
2023/09/18 02:13:32;;;;;;;7.30;6.60;;;20.10;99.90;;;;;;5033545;28;20953;-70
2023/09/18 02:15:59;;;;;;;7.50;6.70;;;19.80;99.90;;;;;;5033336;28;20429;-71
2023/09/18 02:18:26;;;;;;;6.87;6.27;;;20.00;99.90;;;;;;5033257;28;20474;-69
2023/09/18 02:20:53;;;;;;;7.70;6.90;;;19.90;99.90;;;;;;5042561;28;20467;-70
2023/09/18 02:23:20;;;;;;;8.67;7.10;;;20.00;99.90;;;;;;5055592;28;20493;-70
2023/09/18 02:25:58;;;;;;;8.13;7.27;;;20.00;99.90;;;;;;5057502;28;21018;-70
2023/09/18 02:28:28;;;;;;;8.07;7.30;;;20.00;99.90;;;;;;5060578;28;20490;-69
2023/09/18 02:30:56;;;;;;;8.30;7.10;;;19.90;99.90;;;;;;5056369;28;20454;-70
2023/09/18 02:33:23;;;;;;;7.60;6.90;;;19.90;99.90;;;;;;5042987;28;20468;-70
2023/09/18 02:35:50;;;;;;;8.93;7.60;;;19.90;99.90;;;;;;5036801;28;20850;-70
2023/09/18 02:38:17;;;;;;;7.10;6.07;;;19.90;99.90;;;;;;5034317;28;20452;-69
2023/09/18 02:40:44;;;;;;;11.47;7.90;;;19.90;99.90;;;;;;5034280;28;20503;-69
2023/09/18 02:43:11;;;;;;;10.97;7.47;;;19.90;99.90;;;;;;5039400;28;21083;-69
2023/09/18 02:45:38;;;;;;;7.07;6.47;;;19.90;99.90;;;;;;5052777;28;20463;-69
2023/09/18 02:48:07;;;;;;;7.47;6.70;;;19.90;99.90;;;;;;5052852;28;20846;-69
2023/09/18 02:50:35;;;;;;;8.80;7.30;;;19.90;99.90;;;;;;5038002;28;20483;-69
2023/09/18 02:53:05;;;;;;;7.83;6.43;;;19.90;99.90;;;;;;5032614;28;21053;-69
2023/09/18 02:55:32;;;;;;;8.27;7.20;;;19.80;99.90;;;;;;5038929;28;20488;-68
2023/09/18 02:58:00;;;;;;;8.97;7.20;;;19.80;99.90;;;;;;5035168;28;20495;-70
2023/09/18 03:00:27;;;;;;;7.77;6.97;;;19.80;99.90;;;;;;5032911;28;20546;-70
2023/09/18 03:02:54;;;;;;;9.13;7.90;;;19.80;99.90;;;;;;5032288;28;20484;-70
2023/09/18 03:05:22;;;;;;;10.03;7.00;;;19.80;99.90;;;;;;5033122;28;20463;-70
2023/09/18 03:07:50;;;;;;;9.13;7.30;;;19.70;99.90;;;;;;5047305;28;20507;-69
2023/09/18 03:10:23;;;;;;;8.10;6.77;;;19.70;99.90;;;;;;5052116;28;20444;-69
2023/09/18 03:12:50;;;;;;;8.00;7.17;;;19.60;99.90;;;;;;5051612;28;20519;-70
2023/09/18 03:15:18;;;;;;;7.43;6.50;;;19.60;99.90;;;;;;5052551;28;20920;-70
2023/09/18 03:17:45;;;;;;;8.23;6.83;;;19.60;99.90;;;;;;5051934;28;20463;-70
2023/09/18 03:20:12;;;;;;;7.83;7.10;;;19.60;99.90;;;;;;5042660;28;20960;-70
2023/09/18 03:22:41;;;;;;;8.43;7.13;;;19.60;99.90;;;;;;5031968;28;21002;-70
2023/09/18 03:25:10;;;;;;;9.47;6.30;;;19.60;99.90;;;;;;5045597;28;21003;-69
2023/09/18 03:27:37;;;;;;;7.93;7.23;;;19.60;99.90;;;;;;5052527;28;20475;-70
2023/09/18 03:30:05;;;;;;;7.97;7.17;;;19.50;99.90;;;;;;5052872;28;20424;-68
2023/09/18 03:32:32;;;;;;;9.37;8.10;;;19.50;99.90;;;;;;5032935;28;20472;-69
2023/09/18 03:34:59;;;;;;;7.33;6.63;;;19.50;99.90;;;;;;5032469;28;20432;-68
2023/09/18 03:37:26;;;;;;;7.53;6.73;;;19.50;99.90;;;;;;5031931;28;20464;-69
2023/09/18 03:39:56;;;;;;;8.43;7.53;;;19.50;99.90;;;;;;5043425;28;20468;-70
2023/09/18 03:42:23;;;;;;;10.77;7.63;;;19.50;99.90;;;;;;5051902;28;20475;-69
2023/09/18 03:44:50;;;;;;;9.63;7.73;;;19.40;99.90;;;;;;5033988;28;20450;-69
2023/09/18 03:47:17;;;;;;;7.50;6.73;;;19.60;99.90;;;;;;5052165;28;20459;-69
2023/09/18 03:49:44;;;;;;;7.83;6.90;;;19.40;99.90;;;;;;5052446;28;20636;-69
2023/09/18 03:52:12;;;;;;;7.83;6.40;;;19.50;99.90;;;;;;5052798;28;20545;-69
2023/09/18 03:54:39;;;;;;;7.63;6.93;;;19.40;99.90;;;;;;5053066;28;20505;-69
2023/09/18 03:57:08;;;;;;;9.47;7.33;;;19.40;99.90;;;;;;5051189;28;20550;-70
2023/09/18 03:59:36;;;;;;;8.03;7.20;;;19.40;99.90;;;;;;5051636;28;20524;-70
2023/09/18 04:02:05;;;;;;;9.63;7.50;;;19.40;99.90;;;;;;5052122;28;20877;-70
2023/09/18 04:04:32;;;;;;;8.90;6.70;;;19.30;99.90;;;;;;5051360;28;20477;-70
2023/09/18 04:06:59;;;;;;;8.70;7.80;;;19.40;99.90;;;;;;5032360;28;20531;-70
2023/09/18 04:09:28;;;;;;;10.97;8.57;;;19.30;99.90;;;;;;5031401;28;20443;-71
2023/09/18 04:11:57;;;;;;;7.23;6.03;;;19.30;99.90;;;;;;5014287;28;21000;-69
2023/09/18 04:14:25;;;;;;;9.20;8.03;;;19.30;99.90;;;;;;5032346;28;20490;-71
2023/09/18 04:16:52;;;;;;;7.70;6.20;;;19.30;99.90;;;;;;5033066;28;20464;-72
2023/09/18 04:19:19;;;;;;;8.03;7.23;;;19.30;99.90;;;;;;5066328;28;20446;-69
2023/09/18 04:21:46;;;;;;;11.20;7.53;;;19.20;99.90;;;;;;5075364;28;20475;-69
2023/09/18 04:24:13;;;;;;;7.60;6.80;;;19.20;99.90;;;;;;5058585;28;20471;-70
2023/09/18 04:26:40;;;;;;;8.87;7.60;;;19.20;99.90;;;;;;5070726;28;20474;-68
2023/09/18 04:29:07;;;;;;;10.90;7.17;;;19.20;99.90;;;;;;5067273;28;20420;-67
2023/09/18 04:31:36;;;;;;;7.53;6.80;;;19.10;99.90;;;;;;5057955;28;20425;-67
2023/09/18 04:34:03;;;;;;;9.60;7.80;;;19.10;99.90;;;;;;5061136;28;20400;-67
2023/09/18 04:36:31;;;;;;;8.70;6.97;;;19.10;99.90;;;;;;5060842;28;20459;-68
2023/09/18 04:38:58;;;;;;;7.20;6.37;;;19.10;99.90;;;;;;5043916;28;20420;-68
2023/09/18 04:41:25;;;;;;;8.63;6.70;;;19.10;99.90;;;;;;5060199;28;20462;-68
2023/09/18 04:43:52;;;;;;;7.90;6.27;;;19.20;99.90;;;;;;5060201;28;20432;-68
2023/09/18 04:46:21;;;;;;;9.50;7.43;;;19.20;99.90;;;;;;5041335;28;20476;-68
2023/09/18 04:48:49;;;;;;;8.33;7.53;;;19.20;99.90;;;;;;5073870;28;20455;-70
2023/09/18 04:51:17;;;;;;;11.50;8.07;;;19.20;99.90;;;;;;5056155;28;20549;-69
2023/09/18 04:53:44;;;;;;;11.20;7.23;;;19.20;99.90;;;;;;5025486;28;20476;-69
2023/09/18 04:56:11;;;;;;;7.67;6.67;;;19.20;99.90;;;;;;5017241;28;20468;-70
2023/09/18 04:58:39;;;;;;;9.77;7.60;;;19.20;99.90;;;;;;5034242;28;20452;-69
2023/09/18 05:01:06;;;;;;;10.13;8.07;;;19.20;99.90;;;;;;5034197;28;20452;-70
2023/09/18 05:03:35;;;;;;;7.00;6.40;;;19.20;99.90;;;;;;5034570;28;20463;-70
2023/09/18 05:06:05;;;;;;;9.77;7.53;;;19.10;99.90;;;;;;5034316;28;20550;-70
2023/09/18 05:08:32;;;;;;;11.27;7.13;;;19.20;99.90;;;;;;5044515;28;20493;-70
2023/09/18 05:11:00;;;;;;;6.83;6.23;;;19.20;99.90;;;;;;5049900;28;20513;-70
2023/09/18 05:13:28;;;;;;;8.50;6.50;;;19.20;99.90;;;;;;5055921;28;20463;-71
2023/09/18 05:15:56;;;;;;;9.40;7.00;;;19.40;99.90;;;;;;5052982;28;20458;-70
2023/09/18 05:18:23;;;;;;;8.17;6.70;;;19.20;99.90;;;;;;5053964;28;20442;-69
2023/09/18 05:20:50;;;;;;;8.43;7.47;;;19.30;99.90;;;;;;5053780;28;20503;-69
2023/09/18 05:23:19;;;;;;;8.40;7.10;;;19.30;99.90;;;;;;5047922;28;20574;-68
2023/09/18 05:25:45;;;;;;;10.00;6.90;;;19.30;99.90;;;;;;5055415;28;20554;-67
2023/09/18 05:28:13;;;;;;;9.27;8.37;;;19.30;99.90;;;;;;5044551;28;20516;-69
2023/09/18 05:30:40;;;;;;;11.07;7.10;;;19.40;99.90;;;;;;5052722;28;20889;-69
2023/09/18 05:33:08;;;;;;;11.67;7.57;;;19.40;99.90;;;;;;5049438;28;20484;-69
2023/09/18 05:35:37;;;;;;;7.43;6.73;;;19.40;99.90;;;;;;5048965;28;20531;-69
2023/09/18 05:38:06;;;;;;;8.17;7.13;;;19.40;99.90;;;;;;5047620;28;20511;-68
2023/09/18 05:40:36;;;;;;;10.43;7.33;;;19.50;99.90;;;;;;5049269;28;20554;-70
2023/09/18 05:43:03;;;;;;;9.13;7.33;;;19.50;99.90;;;;;;5053887;28;20420;-70
2023/09/18 05:45:31;;;;;;;7.97;7.17;;;19.50;99.90;;;;;;5051058;28;20876;-70
2023/09/18 05:48:03;;;;;;;8.17;6.60;;;19.60;99.90;;;;;;5050757;28;20490;-69
2023/09/18 05:50:31;;;;;;;9.83;8.80;;;19.60;99.90;;;;;;5046440;28;20462;-69
2023/09/18 05:53:00;;;;;;;7.90;6.93;;;19.60;99.90;;;;;;5054130;28;20467;-70
2023/09/18 05:55:28;;;;;;;9.43;7.13;;;19.60;99.90;;;;;;5053770;28;20440;-69
2023/09/18 05:57:57;;;;;;;9.87;7.67;;;19.60;99.90;;;;;;5052593;28;20513;-69
2023/09/18 06:00:25;;;;;;;9.73;8.33;;;19.70;99.90;;;;;;5054899;28;20451;-70
2023/09/18 06:02:53;;;;;;;8.00;7.20;;;19.70;99.90;;;;;;5052658;28;20896;-69
2023/09/18 06:05:22;;;;;;;9.40;7.13;;;19.80;99.90;;;;;;5048894;28;20545;-70
2023/09/18 06:07:50;;;;;;;7.27;6.43;;;19.90;99.90;;;;;;5052718;28;20467;-70
2023/09/18 06:10:18;;;;;;;8.83;7.70;;;19.90;99.90;;;;;;5052937;28;20455;-71
2023/09/18 06:12:45;;;;;;;7.60;5.57;;;19.90;99.90;;;;;;5053746;28;20468;-70
2023/09/18 06:15:14;;;;;;;9.00;7.17;;;20.00;99.90;;;;;;5049635;28;20452;-70
2023/09/18 06:17:43;;;;;;;9.07;7.20;;;20.00;99.90;;;;;;5052946;28;20558;-71
2023/09/18 06:20:13;;;;;;;10.27;5.90;;;20.00;99.90;;;;;;5052129;28;20483;-71
2023/09/18 06:22:42;;;;;;;6.93;5.90;;;20.10;99.90;;;;;;5051746;28;20562;-70
2023/09/18 06:25:12;;;;;;;10.63;6.57;;;20.20;99.90;;;;;;5046802;28;20460;-71
2023/09/18 06:27:41;;;;;;;11.20;6.93;;;20.40;99.90;;;;;;5051276;28;20479;-72
2023/09/18 06:30:10;;;;;;;8.60;6.77;;;20.20;99.90;;;;;;5052390;28;20463;-70
2023/09/18 06:32:39;;;;;;;10.57;6.77;;;20.30;99.90;;;;;;5047545;28;20471;-67
2023/09/18 06:35:08;;;;;;;8.37;7.53;;;20.30;99.90;;;;;;5053669;28;20440;-68
2023/09/18 06:37:35;;;;;;;7.73;6.90;;;20.40;99.90;;;;;;5052384;28;20558;-68
2023/09/18 06:40:05;;;;;;;7.47;6.77;;;20.40;99.90;;;;;;5058513;28;20493;-68
2023/09/18 06:42:33;;;;;;;8.53;7.50;;;20.40;99.90;;;;;;5053829;28;20440;-67
2023/09/18 06:45:01;;;;;;;8.93;6.17;;;20.40;99.90;;;;;;5058143;28;20490;-68
2023/09/18 06:47:28;;;;;;;8.80;5.80;;;20.40;99.90;;;;;;5061132;28;20505;-68
2023/09/18 06:49:59;;;;;;;8.97;6.60;;;20.40;99.90;;;;;;5058570;28;20475;-68
2023/09/18 06:52:27;;;;;;;6.97;5.97;;;20.40;99.90;;;;;;5061102;28;20478;-68
2023/09/18 06:54:54;;;;;;;7.20;6.13;;;20.50;99.90;;;;;;5057782;28;20439;-68
2023/09/18 06:57:22;;;;;;;10.07;6.30;;;20.50;99.90;;;;;;5043561;28;20482;-73
2023/09/18 06:59:50;;;;;;;8.77;7.50;;;20.60;99.90;;;;;;5032233;28;20456;-68
2023/09/18 07:02:17;;;;;;;8.50;6.33;;;20.80;99.90;;;;;;5063258;28;20455;-69
2023/09/18 07:04:48;;;;;;;6.73;5.43;;;20.80;99.90;;;;;;5063438;28;20478;-68
2023/09/18 07:07:23;;;;;;;7.03;6.33;;;20.90;99.90;;;;;;5063286;28;20467;-68
2023/09/18 07:09:50;;;;;;;6.63;5.93;;;21.00;99.90;;;;;;5063736;28;20455;-69
2023/09/18 07:12:19;;;;;;;7.10;6.23;;;21.00;99.90;;;;;;5052835;28;20575;-68
2023/09/18 07:14:46;;;;;;;6.63;5.60;;;21.10;99.90;;;;;;5041989;28;20428;-68
2023/09/18 07:17:13;;;;;;;6.63;5.70;;;21.20;99.90;;;;;;5041151;28;20460;-68
2023/09/18 07:19:43;;;;;;;6.60;5.90;;;21.20;99.90;;;;;;5045054;28;20466;-68
2023/09/18 07:22:12;;;;;;;7.30;5.90;;;21.20;99.90;;;;;;5061544;28;20462;-69
2023/09/18 07:24:45;;;;;;;10.70;6.20;;;21.30;99.90;;;;;;5058523;28;20533;-67
2023/09/18 07:27:12;;;;;;;7.03;6.20;;;21.30;99.90;;;;;;5060601;28;20460;-68
2023/09/18 07:29:42;;;;;;;6.80;6.10;;;21.40;99.90;;;;;;5062363;28;20436;-68
2023/09/18 07:32:13;;;;;;;6.33;5.40;;;21.50;99.90;;;;;;5044062;28;20451;-68
2023/09/18 07:34:41;;;;;;;9.40;8.40;;;21.60;99.90;;;;;;5044062;28;20475;-68
2023/09/18 07:37:08;;;;;;;8.30;7.00;;;;;;;;;;5035606;28;20562;-68
2023/09/18 07:39:42;;;;;;;8.30;6.03;;;21.50;99.90;;;;;;5058466;28;20514;-69
2023/09/18 07:42:11;;;;;;;8.10;6.50;;;21.90;99.90;;;;;;5057502;28;20486;-68
2023/09/18 07:44:40;;;;;;;7.60;6.70;;;22.00;99.90;;;;;;5040792;28;20851;-69
2023/09/18 07:47:08;;;;;;;5.47;4.97;;;22.10;99.90;;;;;;5042430;28;20872;-68
2023/09/18 07:49:35;;;;;;;11.03;7.07;;;22.30;99.90;;;;;;5063110;28;20455;-67
2023/09/18 07:52:05;;;;;;;11.53;5.97;;;22.20;99.90;;;;;;5064005;28;20436;-69
2023/09/18 07:54:33;;;;;;;8.83;6.60;;;22.40;99.90;;;;;;5070392;28;20495;-72
2023/09/18 07:57:01;;;;;;;9.73;5.80;;;22.50;99.90;;;;;;5073261;28;20447;-70
2023/09/18 07:59:30;;;;;;;6.47;5.73;;;22.60;99.90;;;;;;5071992;28;20471;-70
2023/09/18 08:01:58;;;;;;;7.13;5.30;;;22.70;99.90;;;;;;5076140;28;20443;-70
2023/09/18 08:04:26;;;;;;;5.97;5.13;;;22.80;99.90;;;;;;5076286;28;20451;-71
2023/09/18 08:06:53;;;;;;;9.13;5.63;;;23.00;99.90;;;;;;5076424;28;20463;-70
2023/09/18 08:09:20;;;;;;;6.43;5.63;;;23.10;99.90;;;;;;5080205;28;20420;-69
2023/09/18 08:11:49;;;;;;;12.63;5.73;;;23.30;99.90;;;;;;5080281;28;20408;-69
2023/09/18 08:14:18;;;;;;;5.47;4.97;;;23.50;99.90;;;;;;5079672;28;20529;-69
2023/09/18 08:16:48;;;;;;;5.97;4.73;;;24.00;99.90;;;;;;5079383;28;20498;-70
2023/09/18 08:19:18;;;;;;;8.00;5.53;;;25.30;99.90;;;;;;5062940;28;20419;-70
2023/09/18 08:21:48;;;;;;;4.90;4.13;;;27.00;99.90;;;;;;5079571;28;20533;-71
2023/09/18 08:24:15;;;;;;;6.70;5.20;;;29.00;99.90;;;;;;5063173;28;20416;-70
2023/09/18 08:26:44;;;;;;;5.63;5.07;;;30.80;99.90;;;;;;5055682;28;20490;-68
2023/09/18 08:29:11;;;;;;;5.73;5.10;;;32.50;98.60;;;;;;5047734;28;20442;-70
2023/09/18 08:31:40;;;;;;;5.53;5.03;;;33.80;92.00;;;;;;5058085;28;20456;-71
2023/09/18 08:34:09;;;;;;;6.53;4.80;;;34.60;83.80;;;;;;5056770;28;20455;-70
2023/09/18 08:36:37;;;;;;;7.63;6.83;;;35.40;78.10;;;;;;5075088;28;20479;-69
2023/09/18 08:39:06;;;;;;;6.10;5.50;;;35.90;72.30;;;;;;5074508;28;20503;-70
2023/09/18 08:41:34;;;;;;;6.30;5.30;;;36.40;69.20;;;;;;5074854;28;20491;-69
2023/09/18 08:44:04;;;;;;;5.43;4.93;;;36.40;66.20;;;;;;5063308;28;20462;-70
2023/09/18 08:46:31;;;;;;;5.27;4.77;;;36.40;65.00;;;;;;5051385;28;20531;-70
2023/09/18 08:49:01;;;;;;;5.27;4.77;;;36.20;64.00;;;;;;5046947;28;20450;-69
2023/09/18 08:51:30;;;;;;;4.73;4.33;;;36.10;64.00;;;;;;5062005;28;20481;-69
2023/09/18 08:53:57;;;;;;;7.37;5.30;;;36.00;63.60;;;;;;5061633;28;20464;-70
2023/09/18 08:56:25;;;;;;;5.20;4.80;;;35.90;63.70;;;;;;5057309;28;20499;-69
2023/09/18 08:58:53;;;;;;;7.50;6.20;;;35.90;79.10;;;;;;5055764;28;20420;-70
2023/09/18 09:01:21;;;;;;;6.80;4.93;;;35.40;64.20;;;;;;5055070;28;20467;-69
2023/09/18 09:03:48;;;;;;;5.20;4.70;;;35.30;63.90;;;;;;5057292;28;20869;-67
2023/09/18 09:06:16;;;;;;;5.30;4.83;;;35.10;64.00;;;;;;5060293;28;20463;-69
2023/09/18 09:08:45;;;;;;;7.00;5.07;;;34.80;64.40;;;;;;5055264;28;20463;-68
2023/09/18 09:11:12;;;;;;;5.87;5.23;;;34.30;65.00;;;;;;5056138;28;20419;-69
2023/09/18 09:13:40;;;;;;;5.83;5.20;;;33.60;66.90;;;;;;5054952;28;20501;-69
2023/09/18 09:16:11;;;;;;;5.30;4.80;;;33.00;86.80;;;;;;5054352;28;20750;-68
2023/09/18 09:18:49;;;;;;;5.77;5.27;;;33.20;68.90;;;;;;5054570;28;20467;-70
2023/09/18 09:21:16;;;;;;;5.40;4.90;;;33.30;68.80;;;;;;5054823;28;20470;-68
2023/09/18 09:23:51;;;;;;;6.70;4.67;;;33.30;68.40;;;;;;5054692;28;20552;-69
2023/09/18 09:26:20;;;;;;;4.80;4.40;;;33.10;68.30;;;;;;5054429;28;20506;-69
2023/09/18 09:28:49;;;;;;;6.33;4.37;;;32.80;69.10;;;;;;5054370;28;20493;-68
2023/09/18 09:31:27;;;;;;;7.40;6.67;;;32.20;69.90;;;;;;5053905;28;20443;-70
2023/09/18 09:33:55;;;;;;;5.20;4.70;;;31.90;71.20;;;;;;5053678;28;20467;-69
2023/09/18 09:36:22;;;;;;;7.40;6.80;;;31.50;72.40;;;;;;5055076;28;20476;-69
2023/09/18 09:38:56;;;;;;;5.47;5.00;;;31.20;73.10;;;;;;5052239;28;20477;-68
2023/09/18 09:41:27;;;;;;;5.03;4.63;;;30.70;75.10;;;;;;5052830;28;20456;-68
2023/09/18 09:43:56;;;;;;;8.00;7.00;;;30.50;75.80;;;;;;5055299;28;20447;-69
2023/09/18 09:46:25;;;;;;;7.00;5.50;;;30.50;78.20;;;;;;5054170;28;20508;-67
2023/09/18 09:49:02;;;;;;;5.30;4.80;;;30.60;77.40;;;;;;5054440;28;20513;-69
2023/09/18 09:51:30;;;;;;;6.40;4.50;;;30.30;77.10;;;;;;5053795;28;20474;-68
2023/09/18 09:54:00;;;;;;;5.77;5.00;;;29.90;78.30;;;;;;5053925;28;20459;-69
2023/09/18 09:56:45;;;;;;;6.33;4.40;;;29.50;79.50;;;;;;5039622;28;20983;-68
2023/09/18 09:59:15;;;;;;;4.63;3.60;;;29.20;81.20;;;;;;5051305;28;20431;-68
2023/09/18 10:01:44;;;;;;;5.20;4.70;;;28.80;83.00;;;;;;5051016;28;20539;-69
2023/09/18 10:04:17;;;;;;;5.60;5.07;;;28.70;84.20;;;;;;5051342;28;20968;-69
2023/09/18 10:06:46;;;;;;;6.30;4.80;;;28.60;85.20;;;;;;5055790;28;20482;-69
2023/09/18 10:09:16;;;;;;;5.13;4.63;;;28.60;86.00;;;;;;5054291;28;20432;-69
2023/09/18 10:11:53;;;;;;;5.33;4.83;;;28.40;86.40;;;;;;5054757;28;20416;-70
2023/09/18 10:14:22;;;;;;;4.80;4.10;;;28.10;87.80;;;;;;5055778;28;21011;-69
2023/09/18 10:16:54;;;;;;;5.03;4.47;;;27.80;90.00;;;;;;5049538;28;20476;-71
2023/09/18 10:19:33;;;;;;;5.60;4.40;;;27.70;90.20;;;;;;5035557;28;20432;-69
2023/09/18 10:22:10;;;;;;;6.40;5.80;;;27.60;90.70;;;;;;5048085;28;20455;-68
2023/09/18 10:24:42;;;;;;;6.87;5.00;;;27.50;91.50;;;;;;5037562;28;20857;-68
2023/09/18 10:27:11;;;;;;;7.63;4.70;;;27.30;91.80;;;;;;5055409;28;20471;-68
2023/09/18 10:29:38;;;;;;;4.90;4.50;;;27.20;92.60;;;;;;5055408;28;20423;-69
2023/09/18 10:32:07;;;;;;;4.83;4.43;;;27.20;93.00;;;;;;5052808;28;20477;-69
2023/09/18 10:34:36;;;;;;;4.70;4.20;;;27.10;93.30;;;;;;5053650;28;20521;-69
2023/09/18 10:37:06;;;;;;;5.00;4.53;;;27.00;93.80;;;;;;5053297;28;20517;-69
2023/09/18 10:39:37;;;;;;;5.63;5.13;;;27.10;94.30;;;;;;5053776;28;20898;-69
2023/09/18 10:42:10;;;;;;;3.90;3.57;;;27.00;94.80;;;;;;5053782;28;20526;-69
2023/09/18 10:44:39;;;;;;;4.50;4.10;;;27.00;95.00;;;;;;5038886;28;20872;-71
2023/09/18 10:47:09;;;;;;;4.33;3.93;;;26.80;94.70;;;;;;5035794;28;20464;-68
2023/09/18 10:49:37;;;;;;;5.23;4.70;;;26.80;95.30;;;;;;5050670;28;21013;-70
2023/09/18 10:52:06;;;;;;;5.63;4.40;;;26.70;95.70;;;;;;5055675;28;20428;-69
2023/09/18 10:54:37;;;;;;;5.10;4.70;;;26.70;96.00;;;;;;5043305;28;20491;-70
2023/09/18 10:57:14;;;;;;;5.87;5.27;;;26.80;96.30;;;;;;5037027;28;20472;-69
2023/09/18 10:59:48;;;;;;;5.13;4.63;;;26.80;96.60;;;;;;5043793;28;20478;-72
2023/09/18 11:02:17;;;;;;;5.53;5.03;;;26.90;96.70;;;;;;5053548;28;20838;-70
2023/09/18 11:04:46;;;;;;;5.87;5.23;;;26.80;96.70;;;;;;5044921;28;20917;-72
2023/09/18 11:07:21;;;;;;;5.13;4.67;;;26.80;97.20;;;;;;5039217;28;20836;-71
2023/09/18 11:09:50;;;;;;;5.40;4.90;;;26.70;97.60;;;;;;5048197;28;20883;-71
2023/09/18 11:12:43;;;;;;;7.70;5.10;;;26.70;97.90;;;;;;5033597;28;20825;-70
2023/09/18 11:15:27;;;;;;;5.00;4.50;;;26.60;98.30;;;;;;5037423;28;20535;-71
2023/09/18 11:18:02;;;;;;;6.00;5.23;;;26.50;99.00;;;;;;5053292;28;21054;-70
2023/09/18 11:20:30;;;;;;;5.53;4.40;;;26.30;99.70;;;;;;5051783;28;20500;-70
2023/09/18 11:22:59;;;;;;;5.20;4.70;;;26.30;99.90;;;;;;5053288;28;20947;-69
2023/09/18 11:25:41;;;;;;;5.70;5.20;;;26.30;99.90;;;;;;5050773;28;20451;-70
2023/09/18 11:28:16;;;;;;;4.93;4.50;;;26.30;99.90;;;;;;5053234;28;20476;-67
2023/09/18 11:30:57;;;;;;;8.60;4.90;;;26.30;99.90;;;;;;5049542;28;20467;-68
2023/09/18 11:33:35;;;;;;;6.23;5.20;;;26.20;99.90;;;;;;5032795;28;20496;-68
2023/09/18 11:36:06;;;;;;;8.00;5.33;;;26.00;99.90;;;;;;5032314;28;20521;-69
2023/09/18 11:38:35;;;;;;;5.97;4.60;;;26.20;99.90;;;;;;5051752;28;20455;-70
2023/09/18 11:41:21;;;;;;;4.90;4.47;;;26.20;99.90;;;;;;5053177;28;20436;-69
2023/09/18 11:43:50;;;;;;;4.97;4.57;;;26.20;99.90;;;;;;5050788;28;20498;-69
2023/09/18 11:46:20;;;;;;;7.00;5.10;;;26.20;99.90;;;;;;5037081;28;20476;-68
2023/09/18 11:48:51;;;;;;;6.63;4.47;;;26.10;99.90;;;;;;5036497;28;21840;-70
2023/09/18 11:51:28;;;;;;;8.20;6.60;;;26.10;99.90;;;;;;5051641;28;20492;-70
2023/09/18 11:53:57;;;;;;;4.53;4.13;;;26.00;99.90;;;;;;5056057;28;20547;-68
2023/09/18 11:56:24;;;;;;;10.90;4.90;;;26.10;99.90;;;;;;5056537;28;20494;-68
2023/09/18 11:58:54;;;;;;;6.67;4.57;;;26.00;99.90;;;;;;5057048;28;20426;-68
2023/09/18 12:01:23;;;;;;;5.13;4.40;;;26.00;99.90;;;;;;5057553;28;20781;-69
2023/09/18 12:03:57;;;;;;;4.73;4.33;;;26.00;99.90;;;;;;5038228;28;20845;-70
2023/09/18 12:06:24;;;;;;;4.63;4.23;;;26.00;99.90;;;;;;5057049;28;20457;-69
2023/09/18 12:08:53;;;;;;;5.57;5.07;;;26.00;99.90;;;;;;5058115;28;20459;-70
2023/09/18 12:11:21;;;;;;;7.40;4.57;;;26.00;99.90;;;;;;5060811;28;20428;-70
2023/09/18 12:13:53;;;;;;;5.40;4.67;;;26.10;99.90;;;;;;5061302;28;21011;-69
2023/09/18 12:16:20;;;;;;;6.90;5.10;;;26.30;99.90;;;;;;5057078;28;20817;-71
2023/09/18 12:18:49;;;;;;;5.23;4.73;;;26.30;99.90;;;;;;5056971;28;20423;-71
2023/09/18 12:21:17;;;;;;;6.50;4.80;;;26.40;99.90;;;;;;5056977;28;20431;-69
2023/09/18 12:23:45;;;;;;;5.20;4.00;;;26.50;99.90;;;;;;5055936;28;20477;-69
2023/09/18 12:26:14;;;;;;;5.93;4.90;;;26.60;99.90;;;;;;5056015;28;20451;-70
2023/09/18 12:28:42;;;;;;;5.30;4.90;;;26.80;99.90;;;;;;5056477;28;20447;-68
2023/09/18 12:31:15;;;;;;;9.07;4.70;;;27.00;99.90;;;;;;5056239;28;20467;-68
2023/09/18 12:33:44;;;;;;;4.97;4.50;;;27.10;99.90;;;;;;5056139;28;20447;-70
2023/09/18 12:36:14;;;;;;;4.90;4.40;;;27.20;99.90;;;;;;5056491;28;20487;-69
2023/09/18 12:38:42;;;;;;;4.83;4.43;;;27.10;99.90;;;;;;5055407;28;20459;-73
2023/09/18 12:41:12;;;;;;;11.40;6.10;;;27.00;99.90;;;;;;5055825;28;20489;-69
2023/09/18 12:43:41;;;;;;;7.13;4.97;;;26.90;99.90;;;;;;5056014;28;20454;-69
2023/09/18 12:46:09;;;;;;;10.50;4.50;;;26.80;99.90;;;;;;5056297;28;20475;-70
2023/09/18 12:48:45;;;;;;;5.80;5.07;;;26.60;99.90;;;;;;5054978;28;20447;-69
2023/09/18 12:51:13;;;;;;;5.50;5.00;;;26.70;99.90;;;;;;5050367;28;20475;-68
2023/09/18 12:53:42;;;;;;;7.00;4.60;;;26.70;99.90;;;;;;5035361;28;20449;-70
2023/09/18 12:56:13;;;;;;;4.50;4.10;;;26.60;99.90;;;;;;5035701;28;20475;-69
2023/09/18 12:58:42;;;;;;;10.90;4.60;;;26.60;99.90;;;;;;5036080;28;20589;-70
2023/09/18 13:01:11;;;;;;;5.73;5.13;;;26.60;99.90;;;;;;5042259;28;20447;-70
2023/09/18 13:03:48;;;;;;;6.23;5.37;;;26.60;99.90;;;;;;5055302;28;20447;-68
2023/09/18 13:06:18;;;;;;;8.87;5.60;;;26.60;99.90;;;;;;5037662;28;20472;-69
2023/09/18 13:08:45;;;;;;;5.80;4.43;;;26.50;99.90;;;;;;5035056;28;20440;-69
2023/09/18 13:11:15;;;;;;;5.67;4.63;;;26.50;99.90;;;;;;5045371;28;20475;-68
2023/09/18 13:13:43;;;;;;;5.53;4.13;;;26.40;99.90;;;;;;5055721;28;20428;-70
2023/09/18 13:16:11;;;;;;;6.47;5.70;;;26.30;99.90;;;;;;5055334;28;20770;-70